createdAt,value
2023-10-24T00:02:02.086Z,677.95
2023-10-24T00:04:31.100Z,677.35
2023-10-24T00:06:59.582Z,695.22
2023-10-24T00:09:28.028Z,695.63
2023-10-24T00:11:56.603Z,748.90
2023-10-24T00:14:25.056Z,743.85
2023-10-24T00:16:53.752Z,708.17
2023-10-24T00:19:23.848Z,727.78
2023-10-24T00:21:52.505Z,718.45
2023-10-24T00:24:22.898Z,710.05
2023-10-24T00:26:51.267Z,657.53
2023-10-24T00:29:19.796Z,648.05
2023-10-24T00:31:48.493Z,595.40
2023-10-24T00:34:17.946Z,653.33
2023-10-24T00:36:48.487Z,613.05
2023-10-24T00:39:16.894Z,664.00
2023-10-24T00:41:45.495Z,657.47
2023-10-24T00:44:14.568Z,701.15
2023-10-24T00:46:43.306Z,729.63
2023-10-24T00:49:12.250Z,700.15
2023-10-24T00:51:41.173Z,690.88
2023-10-24T00:54:11.420Z,678.55
2023-10-24T00:56:41.171Z,691.13
2023-10-24T00:59:09.680Z,670.25
2023-10-24T01:01:38.554Z,723.60
2023-10-24T01:04:07.854Z,690.28
2023-10-24T01:06:36.488Z,707.55
2023-10-24T01:09:07.078Z,710.22
2023-10-24T01:11:37.088Z,663.25
2023-10-24T01:14:05.930Z,691.47
2023-10-24T01:16:35.707Z,676.58
2023-10-24T01:19:04.326Z,708.13
2023-10-24T01:21:32.970Z,740.60
2023-10-24T01:24:02.891Z,761.75
2023-10-24T01:26:31.419Z,764.80
2023-10-24T01:28:59.811Z,749.47
2023-10-24T01:31:28.485Z,748.33
2023-10-24T01:33:57.105Z,774.85
2023-10-24T01:36:25.649Z,739.85
2023-10-24T01:38:54.074Z,776.83
2023-10-24T01:41:24.609Z,734.53
2023-10-24T01:43:54.049Z,740.75
2023-10-24T01:46:22.779Z,740.28
2023-10-24T01:48:51.378Z,719.63
2023-10-24T01:51:20.985Z,766.42
2023-10-24T01:53:49.744Z,734.03
2023-10-24T01:56:18.302Z,741.80
2023-10-24T01:58:48.192Z,750.38
2023-10-24T02:01:18.117Z,783.20
2023-10-24T02:03:46.693Z,753.47
2023-10-24T02:06:15.260Z,751.20
2023-10-24T02:08:43.766Z,792.28
2023-10-24T02:11:12.104Z,782.25
2023-10-24T02:13:40.669Z,782.42
2023-10-24T02:16:10.695Z,770.55
2023-10-24T02:18:39.417Z,804.40
2023-10-24T02:21:09.287Z,820.72
2023-10-24T02:23:39.625Z,813.35
2023-10-24T02:26:14.604Z,807.35
2023-10-24T02:28:43.686Z,813.55
2023-10-24T02:31:13.936Z,802.35
2023-10-24T02:33:42.404Z,785.13
2023-10-24T02:36:12.103Z,798.78
2023-10-24T02:38:40.953Z,787.53
2023-10-24T02:41:09.435Z,781.65
2023-10-24T02:43:38.144Z,763.55
2023-10-24T02:46:08.762Z,732.17
2023-10-24T02:48:38.685Z,784.53
2023-10-24T02:51:07.091Z,737.25
2023-10-24T02:53:35.673Z,759.35
2023-10-24T02:56:05.239Z,791.33
2023-10-24T02:58:34.405Z,797.55
2023-10-24T03:01:06.413Z,756.53
2023-10-24T03:03:36.990Z,791.67
2023-10-24T03:06:16.028Z,763.88
2023-10-24T03:08:44.774Z,766.15
2023-10-24T03:11:13.541Z,743.25
2023-10-24T03:13:42.562Z,754.28
2023-10-24T03:16:11.189Z,761.58
2023-10-24T03:18:41.631Z,744.90
2023-10-24T03:21:10.440Z,764.50
2023-10-24T03:23:39.072Z,756.47
2023-10-24T03:26:08.262Z,757.58
2023-10-24T03:28:37.034Z,752.25
2023-10-24T03:31:06.375Z,738.65
2023-10-24T03:33:35.642Z,753.28
2023-10-24T03:36:05.869Z,746.28
2023-10-24T03:38:34.634Z,786.03
2023-10-24T03:41:03.094Z,805.08
2023-10-24T03:43:31.629Z,794.20
2023-10-24T03:46:00.434Z,804.65
2023-10-24T03:48:28.898Z,840.53
2023-10-24T03:50:57.260Z,825.28
2023-10-24T03:53:27.172Z,833.30
2023-10-24T03:55:59.668Z,825.40
2023-10-24T03:58:28.551Z,830.78
2023-10-24T04:00:57.386Z,832.58
2023-10-24T04:03:26.121Z,860.53
2023-10-24T04:05:54.753Z,833.47
2023-10-24T04:08:23.329Z,812.90
2023-10-24T04:10:53.090Z,844.13
2023-10-24T04:13:21.674Z,829.15
2023-10-24T04:15:52.733Z,820.20
2023-10-24T04:18:21.242Z,811.63
2023-10-24T04:20:49.701Z,842.95
2023-10-24T04:23:18.868Z,835.47
2023-10-24T04:25:47.971Z,840.47
2023-10-24T04:28:18.421Z,827.83
2023-10-24T04:30:47.158Z,825.35
2023-10-24T04:33:16.536Z,799.35
2023-10-24T04:35:47.321Z,820.05
2023-10-24T04:38:16.024Z,812.67
2023-10-24T04:40:44.874Z,786.78
2023-10-24T04:43:13.503Z,760.85
2023-10-24T04:45:43.382Z,769.85
2023-10-24T04:48:12.511Z,784.90
2023-10-24T04:50:41.535Z,752.42
2023-10-24T04:53:10.018Z,766.67
2023-10-24T04:55:38.668Z,723.70
2023-10-24T04:58:08.085Z,743.25
2023-10-24T05:00:36.660Z,731.38
2023-10-24T05:03:06.813Z,761.67
2023-10-24T05:05:35.258Z,718.83
2023-10-24T05:08:08.048Z,763.88
2023-10-24T05:10:37.111Z,743.30
2023-10-24T05:13:05.823Z,742.92
2023-10-24T05:15:34.275Z,758.25
2023-10-24T05:18:06.818Z,799.75
2023-10-24T05:20:37.553Z,781.20
2023-10-24T05:23:06.009Z,751.53
2023-10-24T05:25:34.731Z,765.85
2023-10-24T05:28:03.556Z,725.05
2023-10-24T05:30:32.133Z,789.15
2023-10-24T05:33:00.517Z,753.95
2023-10-24T05:35:29.395Z,724.17
2023-10-24T05:38:00.040Z,727.28
2023-10-24T05:40:28.478Z,688.45
2023-10-24T05:42:56.991Z,723.53
2023-10-24T05:45:25.466Z,669.80
2023-10-24T05:47:53.904Z,709.55
2023-10-24T05:50:22.740Z,777.08
2023-10-24T05:52:51.660Z,711.47
2023-10-24T05:55:21.471Z,708.20
2023-10-24T05:57:50.227Z,670.70
2023-10-24T06:00:19.429Z,710.47
2023-10-24T06:02:47.822Z,667.90
2023-10-24T06:05:16.579Z,677.13
2023-10-24T06:07:45.318Z,768.72
2023-10-24T06:10:13.823Z,697.08
2023-10-24T06:12:43.747Z,763.38
2023-10-24T06:15:12.947Z,754.05
2023-10-24T06:17:41.465Z,763.35
2023-10-24T06:20:10.903Z,786.33
2023-10-24T06:22:40.102Z,791.08
2023-10-24T06:25:09.055Z,725.33
2023-10-24T06:27:38.709Z,736.83
2023-10-24T06:30:09.817Z,740.13
2023-10-24T06:32:40.853Z,739.03
2023-10-24T06:35:10.852Z,775.00
2023-10-24T06:37:39.454Z,714.25
2023-10-24T06:40:12.329Z,737.10
2023-10-24T06:42:40.953Z,726.20
2023-10-24T06:45:12.368Z,776.85
2023-10-24T06:47:42.358Z,750.35
2023-10-24T06:50:11.952Z,738.88
2023-10-24T06:52:43.316Z,723.28
2023-10-24T06:55:12.294Z,766.60
2023-10-24T06:57:40.709Z,798.53
2023-10-24T07:00:12.802Z,789.80
2023-10-24T07:02:41.235Z,761.03
2023-10-24T07:05:10.024Z,739.03
2023-10-24T07:07:39.881Z,768.53
2023-10-24T07:10:09.723Z,775.15
2023-10-24T07:12:38.070Z,782.22
2023-10-24T07:15:08.500Z,784.63
2023-10-24T07:17:38.392Z,725.40
2023-10-24T07:20:08.314Z,724.22
2023-10-24T07:22:39.763Z,748.30
2023-10-24T07:25:09.060Z,778.40
2023-10-24T07:27:38.037Z,769.25
2023-10-24T07:30:09.264Z,774.20
2023-10-24T07:32:39.590Z,726.70
2023-10-24T07:35:09.389Z,771.13
2023-10-24T07:37:38.093Z,764.20
2023-10-24T07:40:07.642Z,757.20
2023-10-24T07:42:36.355Z,751.63
2023-10-24T07:45:05.101Z,763.55
2023-10-24T07:47:34.026Z,771.65
2023-10-24T07:50:04.399Z,780.40
2023-10-24T07:52:32.914Z,775.88
2023-10-24T07:55:01.355Z,760.75
2023-10-24T07:57:30.781Z,781.35
2023-10-24T07:59:59.894Z,823.88
2023-10-24T08:02:28.593Z,712.70
2023-10-24T08:04:57.208Z,750.97
2023-10-24T08:07:27.178Z,755.42
2023-10-24T08:09:55.732Z,756.20
2023-10-24T08:12:24.121Z,740.70
2023-10-24T08:14:52.626Z,765.72
2023-10-24T08:17:21.100Z,754.75
2023-10-24T08:19:50.611Z,781.40
2023-10-24T08:22:19.078Z,730.65
2023-10-24T08:24:49.292Z,689.92
2023-10-24T08:27:17.888Z,689.70
2023-10-24T08:29:46.332Z,653.80
2023-10-24T08:32:15.817Z,675.22
2023-10-24T08:34:45.087Z,642.53
2023-10-24T08:37:14.103Z,662.70
2023-10-24T08:39:43.150Z,640.17
2023-10-24T08:42:13.858Z,632.53
2023-10-24T08:44:43.859Z,679.53
2023-10-24T08:47:12.941Z,670.00
2023-10-24T08:49:42.316Z,693.45
2023-10-24T08:52:29.175Z,560.05
2023-10-24T08:54:59.407Z,533.33
2023-10-24T08:57:31.698Z,571.63
2023-10-24T09:00:02.150Z,591.33
2023-10-24T09:02:31.704Z,534.47
2023-10-24T09:05:01.799Z,569.13
2023-10-24T09:07:30.944Z,641.00
2023-10-24T09:09:59.557Z,665.28
2023-10-24T09:12:31.558Z,646.47
2023-10-24T09:15:00.576Z,696.33
2023-10-24T09:17:32.187Z,679.90
2023-10-24T09:20:01.302Z,688.90
2023-10-24T09:22:31.289Z,711.08
2023-10-24T09:25:00.418Z,694.50
2023-10-24T09:27:30.252Z,698.28
2023-10-24T09:29:58.796Z,716.90
2023-10-24T09:32:28.940Z,750.50
2023-10-24T09:34:57.869Z,743.42
2023-10-24T09:37:26.419Z,695.95
2023-10-24T09:39:56.427Z,698.88
2023-10-24T09:42:33.307Z,787.42
2023-10-24T09:45:07.281Z,744.28
2023-10-24T09:47:37.250Z,737.17
2023-10-24T09:50:09.278Z,769.15
2023-10-24T09:52:38.251Z,733.63
2023-10-24T09:55:07.389Z,778.33
2023-10-24T09:57:36.521Z,797.95
2023-10-24T10:00:15.381Z,815.58
2023-10-24T10:02:47.566Z,773.10
2023-10-24T10:05:17.017Z,808.63
2023-10-24T10:07:50.120Z,769.80
2023-10-24T10:10:18.911Z,804.05
2023-10-24T10:12:48.288Z,811.80
2023-10-24T10:15:38.449Z,770.25
2023-10-24T10:18:14.194Z,772.15
2023-10-24T10:20:56.182Z,799.28
2023-10-24T10:23:53.952Z,762.78
2023-10-24T10:26:26.026Z,785.83
2023-10-24T10:29:05.945Z,773.17
2023-10-24T10:32:40.342Z,775.60
2023-10-24T10:34:44.949Z,774.80
2023-10-24T10:37:13.935Z,788.25
2023-10-24T10:39:42.584Z,774.85
2023-10-24T10:42:47.379Z,789.92
2023-10-24T10:45:31.066Z,776.63
2023-10-24T10:48:01.931Z,777.85
2023-10-24T10:50:31.493Z,768.90
2023-10-24T10:53:18.622Z,734.00
2023-10-24T10:56:03.263Z,736.05
2023-10-24T10:58:40.772Z,776.03
2023-10-24T11:01:14.871Z,784.35
2023-10-24T11:03:49.063Z,746.88
2023-10-24T11:06:18.496Z,733.45
2023-10-24T11:08:50.706Z,769.35
2023-10-24T11:11:21.873Z,745.30
2023-10-24T11:13:52.709Z,763.42
2023-10-24T11:16:37.304Z,747.65
2023-10-24T11:19:08.973Z,741.78
2023-10-24T11:21:37.746Z,780.42
2023-10-24T11:24:06.863Z,701.92
2023-10-24T11:26:35.396Z,734.75
2023-10-24T11:29:04.167Z,744.65
2023-10-24T11:31:33.220Z,788.92
2023-10-24T11:34:03.141Z,748.10
2023-10-24T11:36:33.055Z,769.40
2023-10-24T11:39:05.403Z,766.83
2023-10-24T11:41:34.009Z,723.22
2023-10-24T11:44:03.210Z,800.60
2023-10-24T11:46:31.750Z,773.40
2023-10-24T11:49:00.228Z,777.45
2023-10-24T11:51:30.283Z,764.28
2023-10-24T11:54:07.771Z,746.22
2023-10-24T11:56:36.820Z,767.03
2023-10-24T11:59:06.626Z,757.90
2023-10-24T12:01:35.860Z,843.80
2023-10-24T12:04:06.156Z,749.65
2023-10-24T12:06:34.691Z,738.90
2023-10-24T12:09:03.124Z,771.55
2023-10-24T12:11:35.213Z,772.60
2023-10-24T12:14:04.258Z,763.65
2023-10-24T12:16:47.323Z,765.97
2023-10-24T12:19:16.498Z,776.70
2023-10-24T12:21:44.917Z,776.08
2023-10-24T12:24:14.410Z,760.38
2023-10-24T12:26:44.194Z,766.10
2023-10-24T12:29:12.815Z,791.20
2023-10-24T12:31:41.664Z,773.13
2023-10-24T12:34:10.561Z,773.20
2023-10-24T12:36:39.345Z,760.83
2023-10-24T12:39:08.008Z,770.45
2023-10-24T12:41:37.613Z,764.13
2023-10-24T12:44:07.665Z,758.97
2023-10-24T12:46:36.142Z,794.80
2023-10-24T12:49:05.411Z,791.28
2023-10-24T12:51:33.852Z,807.20
2023-10-24T12:54:02.330Z,820.22
2023-10-24T12:56:31.092Z,779.70
2023-10-24T12:58:59.672Z,769.08
2023-10-24T13:01:30.765Z,781.95
2023-10-24T13:03:59.529Z,875.13
2023-10-24T13:06:27.930Z,751.72
2023-10-24T13:08:56.359Z,809.25
2023-10-24T13:11:24.843Z,807.60
2023-10-24T13:13:53.368Z,744.90
2023-10-24T13:16:21.841Z,782.75
2023-10-24T13:18:51.772Z,775.70
2023-10-24T13:21:20.403Z,759.10
2023-10-24T13:23:49.041Z,767.05
2023-10-24T13:26:17.868Z,709.92
2023-10-24T13:28:46.436Z,725.88
2023-10-24T13:31:16.265Z,685.90
2023-10-24T13:34:21.579Z,728.03
2023-10-24T13:36:35.657Z,678.00
2023-10-24T13:39:05.084Z,649.00
2023-10-24T13:41:33.645Z,711.22
2023-10-24T13:44:02.403Z,686.78
2023-10-24T13:46:30.935Z,712.45
2023-10-24T13:48:59.460Z,732.08
2023-10-24T13:51:28.507Z,686.50
2023-10-24T13:53:58.819Z,720.10
2023-10-24T13:56:27.563Z,738.72
2023-10-24T13:58:56.190Z,802.17
2023-10-24T14:01:24.985Z,775.40
2023-10-24T14:03:53.858Z,675.95
2023-10-24T14:06:22.803Z,753.45
2023-10-24T14:08:51.314Z,756.88
2023-10-24T14:11:21.194Z,844.58
2023-10-24T14:13:49.853Z,745.30
2023-10-24T14:16:18.624Z,821.40
2023-10-24T14:18:47.217Z,714.45
2023-10-24T14:21:16.010Z,845.05
2023-10-24T14:23:44.470Z,803.85
2023-10-24T14:26:13.061Z,759.63
2023-10-24T14:28:42.917Z,736.35
2023-10-24T14:31:11.573Z,726.05
2023-10-24T14:33:40.131Z,689.58
2023-10-24T14:36:08.950Z,742.90
2023-10-24T14:38:37.399Z,750.70
2023-10-24T14:41:06.796Z,753.83
2023-10-24T14:43:36.383Z,731.08
2023-10-24T14:46:06.506Z,687.63
2023-10-24T14:48:37.985Z,700.53
2023-10-24T14:51:07.092Z,645.22
2023-10-24T14:53:35.561Z,698.80
2023-10-24T14:56:04.082Z,653.15
2023-10-24T14:58:32.782Z,710.33
2023-10-24T15:01:01.475Z,696.88
2023-10-24T15:03:31.327Z,717.53
2023-10-24T15:05:59.834Z,706.47
2023-10-24T15:08:28.294Z,728.85
2023-10-24T15:10:56.770Z,714.97
2023-10-24T15:13:26.616Z,737.80
2023-10-24T15:15:55.172Z,774.80
2023-10-24T15:18:23.755Z,730.72
2023-10-24T15:20:53.573Z,721.35
2023-10-24T15:23:22.056Z,794.53
2023-10-24T15:25:50.539Z,825.83
2023-10-24T15:28:19.130Z,775.03
2023-10-24T15:30:47.596Z,778.65
2023-10-24T15:33:16.420Z,745.55
2023-10-24T15:35:45.581Z,768.65
2023-10-24T15:38:15.798Z,776.53
2023-10-24T15:40:44.298Z,793.10
2023-10-24T15:43:12.837Z,813.05
2023-10-24T15:45:41.233Z,730.83
2023-10-24T15:48:09.757Z,753.25
2023-10-24T15:50:38.260Z,772.60
2023-10-24T15:53:06.801Z,710.90
2023-10-24T15:55:36.731Z,708.42
2023-10-24T15:58:06.650Z,723.88
2023-10-24T16:00:35.306Z,752.42
2023-10-24T16:03:04.078Z,696.70
2023-10-24T16:05:32.633Z,654.63
2023-10-24T16:08:01.240Z,676.60
2023-10-24T16:10:30.956Z,675.20
2023-10-24T16:13:01.057Z,696.88
2023-10-24T16:15:29.521Z,630.25
2023-10-24T16:17:58.034Z,546.97
2023-10-24T16:20:26.829Z,646.88
2023-10-24T16:22:55.724Z,603.63
2023-10-24T16:25:24.200Z,609.95
2023-10-24T16:27:53.043Z,516.63
2023-10-24T16:30:22.983Z,562.47
2023-10-24T16:32:53.196Z,557.00
2023-10-24T16:35:21.810Z,501.10
2023-10-24T16:37:50.526Z,446.45
2023-10-24T16:43:02.673Z,513.30
2023-10-24T16:45:33.474Z,528.95
2023-10-24T16:48:03.103Z,635.88
2023-10-24T16:50:37.727Z,606.08
2023-10-24T16:53:07.196Z,527.65
2023-10-24T16:55:36.637Z,527.65
2023-10-24T16:58:05.084Z,620.55
2023-10-24T17:00:37.908Z,640.53
2023-10-24T17:03:06.730Z,655.45
2023-10-24T17:05:35.793Z,640.58
2023-10-24T17:08:04.290Z,567.92
2023-10-24T17:10:33.772Z,482.02
2023-10-24T17:13:02.717Z,486.40
2023-10-24T17:15:31.298Z,350.08
2023-10-24T17:18:01.150Z,418.25
2023-10-24T17:20:31.693Z,379.13
2023-10-24T17:23:00.317Z,314.67
2023-10-24T17:25:28.793Z,357.58
2023-10-24T17:27:57.233Z,369.13
2023-10-24T17:30:27.059Z,353.60
2023-10-24T17:32:57.326Z,251.88
2023-10-24T17:35:27.749Z,409.58
2023-10-24T17:37:56.220Z,359.77
2023-10-24T17:40:27.245Z,549.75
2023-10-24T17:42:56.561Z,429.30
2023-10-24T17:45:25.142Z,336.23
2023-10-24T17:47:54.244Z,410.38
2023-10-24T17:50:23.005Z,430.02
2023-10-24T17:52:52.904Z,351.02
2023-10-24T17:55:21.287Z,323.10
2023-10-24T17:57:49.765Z,304.02
2023-10-24T18:15:25.922Z,247.60
2023-10-24T18:17:57.695Z,360.27
2023-10-24T18:20:26.193Z,306.70
2023-10-24T18:22:54.875Z,558.22
2023-10-24T18:25:23.639Z,446.50
2023-10-24T18:27:52.069Z,331.00
2023-10-24T18:30:20.752Z,418.23
2023-10-24T18:32:49.590Z,453.45
2023-10-24T18:35:19.898Z,388.25
2023-10-24T18:37:48.885Z,544.97
2023-10-24T18:40:19.862Z,525.47
2023-10-24T18:42:51.011Z,400.77
2023-10-24T18:45:21.179Z,478.90
2023-10-24T18:47:49.821Z,532.45
2023-10-24T18:50:22.670Z,504.40
2023-10-24T18:52:54.619Z,510.80
2023-10-24T18:55:23.065Z,454.48
2023-10-24T18:57:51.932Z,527.95
2023-10-24T19:00:20.844Z,502.45
2023-10-24T19:02:53.683Z,529.08
2023-10-24T19:05:24.166Z,520.75
2023-10-24T19:07:52.577Z,562.13
2023-10-24T19:10:21.811Z,523.72
2023-10-24T19:12:50.906Z,554.38
2023-10-24T19:15:20.242Z,587.70
2023-10-24T19:17:50.056Z,572.53
2023-10-24T19:20:18.788Z,578.22
2023-10-24T19:22:49.276Z,509.30
2023-10-24T19:25:18.724Z,555.00
2023-10-24T19:27:47.836Z,561.38
2023-10-24T19:30:17.189Z,573.03
2023-10-24T19:32:46.279Z,546.63
2023-10-24T19:35:15.852Z,466.85
2023-10-24T19:37:46.088Z,542.13
2023-10-24T19:40:17.112Z,563.85
2023-10-24T19:42:46.936Z,483.70
2023-10-24T19:45:16.421Z,549.63
2023-10-24T19:47:50.527Z,546.50
2023-10-24T19:50:19.344Z,504.20
2023-10-24T19:52:48.880Z,593.80
2023-10-24T19:55:31.887Z,502.40
2023-10-24T19:58:03.033Z,559.85
2023-10-24T20:00:32.463Z,542.83
2023-10-24T20:03:01.627Z,543.88
2023-10-24T20:05:30.649Z,571.28
2023-10-24T20:08:00.211Z,488.88
2023-10-24T20:10:31.250Z,548.42
2023-10-24T20:13:20.636Z,571.63
2023-10-24T20:15:49.981Z,591.58
2023-10-24T20:18:18.775Z,564.53
2023-10-24T20:20:50.332Z,567.95
2023-10-24T20:23:21.771Z,556.90
2023-10-24T20:25:53.006Z,546.58
2023-10-24T20:28:22.190Z,581.92
2023-10-24T20:30:50.835Z,495.85
2023-10-24T20:33:19.562Z,600.95
2023-10-24T20:35:49.958Z,588.03
2023-10-24T20:38:18.572Z,536.00
2023-10-24T20:40:47.330Z,502.40
2023-10-24T20:43:17.356Z,545.42
2023-10-24T20:45:47.772Z,592.05
2023-10-24T20:48:16.369Z,575.53
2023-10-24T20:50:44.834Z,538.70
2023-10-24T20:53:12.193Z,546.17
2023-10-24T20:55:40.809Z,494.73
2023-10-24T20:58:09.502Z,513.40
2023-10-24T21:00:39.510Z,574.75
2023-10-24T21:03:08.053Z,567.67
2023-10-24T21:05:36.474Z,535.88
2023-10-24T21:08:05.067Z,514.60
2023-10-24T21:10:34.488Z,485.92
2023-10-24T21:13:02.947Z,540.47
2023-10-24T21:15:31.653Z,487.70
2023-10-24T21:18:01.534Z,530.88
2023-10-24T21:20:30.201Z,498.27
2023-10-24T21:22:58.825Z,574.25
2023-10-24T21:25:27.492Z,564.42
2023-10-24T21:27:55.968Z,502.95
2023-10-24T21:30:24.354Z,556.15
2023-10-24T21:32:53.069Z,546.35
2023-10-24T21:35:22.904Z,550.63
2023-10-24T21:37:51.578Z,509.60
2023-10-24T21:40:20.221Z,565.72
2023-10-24T21:42:48.785Z,517.03
2023-10-24T21:45:18.360Z,537.55
2023-10-24T21:47:49.525Z,582.70
2023-10-24T21:50:19.826Z,600.65
2023-10-24T21:52:49.696Z,569.47
2023-10-24T21:55:18.326Z,561.55
2023-10-24T21:57:46.818Z,546.80
2023-10-24T22:00:17.619Z,604.35
2023-10-24T22:02:46.540Z,515.28
2023-10-24T22:05:16.381Z,520.58
2023-10-24T22:07:44.998Z,499.65
2023-10-24T22:10:16.707Z,518.60
2023-10-24T22:12:45.433Z,560.10
2023-10-24T22:15:14.956Z,585.13
2023-10-24T22:17:44.441Z,635.20
2023-10-24T22:20:13.467Z,557.75
2023-10-24T22:22:42.336Z,621.88
2023-10-24T22:25:11.819Z,624.67
2023-10-24T22:27:45.449Z,579.55
2023-10-24T22:30:23.447Z,567.65
2023-10-24T22:32:51.963Z,580.08
2023-10-24T22:35:20.508Z,571.55
2023-10-24T22:37:48.969Z,560.80
2023-10-24T22:40:17.675Z,535.15
2023-10-24T22:42:47.545Z,570.97
2023-10-24T22:45:16.203Z,657.25
2023-10-24T22:47:48.628Z,560.80
2023-10-24T22:50:21.678Z,545.88
2023-10-24T22:52:51.563Z,508.80
2023-10-24T22:55:20.365Z,567.53
2023-10-24T22:57:50.582Z,552.88
2023-10-24T23:00:19.617Z,593.45
2023-10-24T23:02:48.279Z,472.02
2023-10-24T23:05:17.097Z,524.33
2023-10-24T23:07:45.863Z,522.08
2023-10-24T23:10:14.557Z,441.52
2023-10-24T23:12:43.259Z,533.00
2023-10-24T23:15:13.415Z,421.23
2023-10-24T23:17:41.981Z,457.13
2023-10-24T23:20:11.672Z,527.53
2023-10-24T23:22:40.262Z,415.33
2023-10-24T23:25:09.321Z,405.17
2023-10-24T23:27:38.199Z,376.35
2023-10-24T23:30:07.950Z,370.02
2023-10-24T23:32:38.004Z,489.30
2023-10-24T23:35:07.864Z,509.67
2023-10-24T23:37:36.482Z,351.15
2023-10-24T23:40:05.732Z,519.55
2023-10-24T23:42:34.605Z,393.88
2023-10-24T23:45:03.066Z,291.35
2023-10-24T23:47:31.434Z,396.17
2023-10-24T23:50:01.241Z,485.90
2023-10-24T23:52:29.757Z,426.60
2023-10-24T23:54:58.361Z,353.08
2023-10-24T23:57:27.695Z,453.67
2023-10-24T23:59:56.150Z,408.67
